Flight Track Log - Related Links

Times and Time Zones

All times are in EDT time to prevent confusion due to time zone crossing. See the FIV521 flight status page for this flight to view local times or setup timezone preferences in your user account.

Time Position Orientation Groundspeed Altitude Reporting Facility
EDT Latitude Longitude Course Direction KTS MPH feet Rate Location/Type
Fri 08:29:51 AM 26.7175 -81.7936 355° North 275 316 6,300  Level Miami Center
Fri 08:30:51 AM 26.7972 -81.7806 North 281 323 9,600 2,800 Climbing Miami Center
Fri 08:31:51 AM 26.8853 -81.7681 North 287 330 11,900 2,600 Climbing Miami Center
Fri 08:32:51 AM 26.9775 -81.7533 North 314 361 14,800 2,750 Climbing Miami Center
Fri 08:33:00 AM 26.9868 -81.8984 354° North  Level FlightAware Approximate
Fri 08:33:51 AM 27.0631 -81.7569 358° North 314 361 17,400  Level Miami Center
Fri 08:34:00 AM 27.0845 -81.9084 355° North  Level FlightAware Approximate
Fri 08:34:51 AM 27.1497 -81.7864 343° North 308 354 19,700  Level Miami Center
Fri 08:35:51 AM 27.2386 -81.8133 345° North 325 374 21,600 1,800 Climbing Miami Center
Fri 08:36:51 AM 27.3397 -81.8481 343° North 333 383 23,300 1,600 Climbing Miami Center
Fri 08:37:51 AM 27.4325 -81.8825 342° North 343 395 24,800 1,550 Climbing Miami Center
Fri 08:38:51 AM 27.5294 -81.9147 344° North 343 395 26,400 1,600 Climbing Miami Center
Fri 08:39:51 AM 27.6117 -81.9467 341° North 343 395 28,000 1,200 Climbing Miami Center
Fri 08:42:31 AM 27.8736 -82.0333 344° North 372 428 30,800 1,145 Climbing Jacksonville Center
Fri 08:43:31 AM 27.9700 -82.0631 345° North 366 421 32,200 1,400 Climbing Jacksonville Center
Fri 08:44:31 AM 28.0681 -82.0928 345° North 361 415 33,600 1,400 Climbing Jacksonville Center
Fri 08:45:31 AM 28.1644 -82.1203 346° North 361 415 35,000 1,450 Climbing Jacksonville Center
Fri 08:46:31 AM 28.2606 -82.1503 345° North 361 415 36,500 1,400 Climbing Jacksonville Center
Fri 08:47:31 AM 28.3567 -82.1778 346° North 361 415 37,800 1,150 Climbing Jacksonville Center
Fri 08:48:31 AM 28.4528 -82.2078 345° North 361 415 38,800 1,000 Climbing Jacksonville Center
Fri 08:49:31 AM 28.5531 -82.2356 346° North 361 415 39,800 600 Climbing Jacksonville Center
Fri 08:50:31 AM 28.6514 -82.2656 345° North 361 415 40,000 100 Climbing Jacksonville Center
Fri 08:51:31 AM 28.7536 -82.2981 344° North 367 422 40,000  Level Jacksonville Center
Fri 08:52:31 AM 28.8583 -82.3283 346° North 373 429 40,000  Level Jacksonville Center
Fri 08:53:31 AM 28.9564 -82.3586 345° North 373 429 40,000  Level Jacksonville Center
Fri 08:54:31 AM 29.0608 -82.3889 346° North 379 436 40,000  Level Jacksonville Center
Fri 08:55:31 AM 29.1656 -82.4147 348° North 379 436 40,000  Level Jacksonville Center
Fri 08:56:31 AM 29.2761 -82.4164 359° North 384 442 40,000  Level Jacksonville Center
Fri 08:57:31 AM 29.3889 -82.4231 357° North 390 449 40,000  Level Jacksonville Center
Fri 08:58:31 AM 29.4994 -82.4250 359° North 390 449 40,000 -150 Level Jacksonville Center
Fri 08:59:31 AM 29.6122 -82.4317 357° North 396 456 39,700 -450 Descending Jacksonville Center
Fri 09:00:31 AM 29.7228 -82.4333 359° North 396 456 39,100 -350 Descending Jacksonville Center
Fri 09:01:31 AM 29.8439 -82.4400 357° North 396 456 39,000 -50 Descending Jacksonville Center
Fri 09:02:31 AM 29.9547 -82.4442 358° North 401 461 39,000  Level Jacksonville Center
Fri 09:03:31 AM 30.0569 -82.4533 356° North 401 461 39,000  Level Jacksonville Center
Fri 09:04:31 AM 30.1697 -82.4578 358° North 406 467 39,000  Level Jacksonville Center
Fri 09:05:31 AM 30.2825 -82.4594 359° North 406 467 39,000  Level Jacksonville Center
Fri 09:06:31 AM 30.3931 -82.4664 357° North 406 467 39,000  Level Jacksonville Center
Fri 09:07:31 AM 30.5081 -82.4706 358° North 406 467 39,000  Level Jacksonville Center
Fri 09:08:31 AM 30.6167 -82.4725 359° North 401 461 39,000  Level Jacksonville Center
Fri 09:09:31 AM 30.7314 -82.4406 13° North 406 467 39,000 -250 Level Jacksonville Center
Fri 09:10:31 AM 30.8461 -82.4133 12° North 411 473 38,500 -850 Descending Jacksonville Center
Fri 09:11:31 AM 30.9586 -82.3861 12° North 411 473 37,300 -1,550 Descending Jacksonville Center
Fri 09:12:31 AM 31.0756 -82.3564 12° North 417 480 35,400 -1,900 Descending Jacksonville Center
Fri 09:13:31 AM 31.1922 -82.3364 North 417 480 33,500 -1,200 Descending Jacksonville Center
Fri 09:14:31 AM 31.3050 -82.3383 359° North 412 474 33,000 -250 Descending Jacksonville Center
Fri 09:15:31 AM 31.4117 -82.3742 344° North 397 457 33,000  Level Jacksonville Center
Fri 09:16:31 AM 31.5206 -82.4172 341° North 397 457 33,000  Level Jacksonville Center
Fri 09:17:31 AM 31.6356 -82.4656 340° North 415 478 33,000  Level Jacksonville Center
Fri 09:19:41 AM 31.8858 -82.5639 342° North 439 505 33,000  Level Atlanta Center
Fri 09:20:41 AM 31.9992 -82.6086 341° North 434 499 33,000  Level Atlanta Center
Fri 09:21:41 AM 32.1103 -82.6533 341° North 426 490 33,000  Level Atlanta Center
Fri 09:22:41 AM 32.2236 -82.6958 342° North 426 490 33,000 -800 Level Atlanta Center
Fri 09:23:41 AM 32.3325 -82.7408 341° North 426 490 31,400 -1,750 Descending Atlanta Center
Fri 09:24:41 AM 32.4372 -82.7811 342° North 432 497 29,500 -1,900 Descending Atlanta Center
Fri 09:25:41 AM 32.5506 -82.8264 341° North 432 497 27,600 -1,900 Descending Atlanta Center
Fri 09:26:41 AM 32.6472 -82.9139 323° Northwest 427 491 25,700 -1,900 Descending Atlanta Center
Fri 09:27:41 AM 32.7378 -83.0092 319° Northwest 432 497 23,800 -1,800 Descending Atlanta Center
Fri 09:28:41 AM 32.8219 -83.0922 320° Northwest 421 484 22,100 -1,700 Descending Atlanta Center
Fri 09:29:41 AM 32.9083 -83.1778 320° Northwest 408 470 20,400 -1,250 Descending Atlanta Center
Fri 09:30:41 AM 32.9944 -83.2611 321° Northwest 401 461 19,600 -750 Descending Atlanta Center
Fri 09:31:41 AM 33.0764 -83.3497 318° Northwest 401 461 18,900 -1,450 Descending Atlanta Center
Fri 09:32:41 AM 33.1581 -83.4308 320° Northwest 390 449 16,700 -2,250 Descending Atlanta Center
Fri 09:33:41 AM 33.2464 -83.5197 320° Northwest 384 442 14,400 -2,200 Descending Atlanta Center
Fri 09:34:41 AM 33.3239 -83.5989 320° Northwest 379 436 12,300 -1,700 Descending Atlanta Center
Fri 09:35:41 AM 33.3886 -83.6656 319° Northwest 338 389 11,000 -650 Descending Atlanta Center
Fri 09:36:41 AM 33.4556 -83.7200 326° Northwest 298 343 11,000 -700 Level Atlanta Center
Fri 09:37:41 AM 33.5456 -83.7222 359° North 292 336 9,600 -1,450 Descending Atlanta Center
Fri 09:38:41 AM 33.6372 -83.7169 North 316 364 8,100 -1,100 Descending Atlanta Center
Fri 09:39:41 AM 33.7269 -83.7117 North 325 374 7,400 -1,100 Descending Atlanta Center
Fri 09:40:41 AM 33.8167 -83.7089 North 325 374 5,900 -1,550 Descending Atlanta Center
Fri 09:41:41 AM 33.9022 -83.7033 North 315 362 4,300 -950 Descending Atlanta Center
Fri 09:42:41 AM 33.9878 -83.7006 North 307 353 4,000 -115 Descending Atlanta Center
Fri 09:44:17 AM 34.0500 -83.7833 312° West 223 257 4,000 -280 Level Atlanta TRACON
Fri 09:45:11 AM 34.0333 -83.8333 248° West 153 176 3,300 -632 Descending Atlanta TRACON
Fri 09:46:11 AM 34.0167 -83.8500 220° Southwest 87 100 2,800 -500 Descending Atlanta TRACON
Fri 09:47:11 AM 34.0167 -83.8833 270° West 106 122 2,300 -579 Descending Atlanta TRACON
Fri 09:48:05 AM 34.0000 -83.9167 239° Southwest 113 130 1,700 -667 Descending Atlanta TRACON
Fri 09:50:00 AM 33.9667 -83.9500 121° Southeast  Level FlightAware Approximate
Fri 09:57:00 AM 33.9781 -83.9624 121° Southeast  Level Estimated

Login

Don't have an account? Register now (free) for customized features, flight alerts, and more!